Time;durP1;ratioP1;P1;durP2;ratioP2;P2;SDS_P1;SDS_P2;PMS_P1;PMS_P2;Temp;Humidity;BMP_temperature;BMP_pressure;BME280_temperature;BME280_humidity;BME280_pressure;Samples;Min_cycle;Max_cycle;Signal;HPM_P1;HPM_P2
2022/06/27 00:00:31;;;;;;;6.45;2.67;;;20.10;68.90;;;;;;5051769;28;20024;-63
2022/06/27 00:02:56;;;;;;;5.68;2.75;;;20.10;68.90;;;;;;5050922;28;20072;-63
2022/06/27 00:05:22;;;;;;;7.35;2.85;;;20.00;68.80;;;;;;5042930;28;20036;-63
2022/06/27 00:07:47;;;;;;;7.85;2.78;;;20.00;68.80;;;;;;5040024;28;20091;-63
2022/06/27 00:10:13;;;;;;;6.32;2.65;;;20.00;68.80;;;;;;5031230;28;20029;-63
2022/06/27 00:12:40;;;;;;;5.60;2.83;;;20.00;68.80;;;;;;5052101;28;20458;-64
2022/06/27 00:15:07;;;;;;;6.40;2.85;;;20.00;68.70;;;;;;5046044;28;20056;-64
2022/06/27 00:17:33;;;;;;;6.88;2.40;;;20.00;68.60;;;;;;5056709;28;20037;-63
2022/06/27 00:19:59;;;;;;;6.53;2.97;;;20.00;68.50;;;;;;5052632;28;20031;-64
2022/06/27 00:22:26;;;;;;;5.85;2.63;;;20.00;68.40;;;;;;5040108;28;20021;-63
2022/06/27 00:24:52;;;;;;;4.93;2.42;;;20.00;68.20;;;;;;5045951;28;20037;-63
2022/06/27 00:27:17;;;;;;;5.45;2.45;;;20.00;68.00;;;;;;5051834;28;20021;-63
2022/06/27 00:29:43;;;;;;;6.60;2.55;;;20.00;68.10;;;;;;5047741;28;20033;-64
2022/06/27 00:32:09;;;;;;;6.50;2.33;;;20.00;68.10;;;;;;5053093;28;20043;-63
2022/06/27 00:34:36;;;;;;;6.82;2.47;;;20.00;68.00;;;;;;5045564;28;20060;-63
2022/06/27 00:37:03;;;;;;;6.60;2.50;;;20.00;68.10;;;;;;5050642;28;20408;-63
2022/06/27 00:39:28;;;;;;;5.55;2.53;;;20.00;68.20;;;;;;5043333;28;20061;-63
2022/06/27 00:41:54;;;;;;;7.22;2.70;;;20.00;68.00;;;;;;5051247;28;20075;-63
2022/06/27 00:44:36;;;;;;;6.90;2.88;;;20.00;68.00;;;;;;5049271;28;20037;-63
2022/06/27 00:47:04;;;;;;;7.97;2.45;;;20.00;67.90;;;;;;5061217;28;20045;-63
2022/06/27 00:49:30;;;;;;;6.28;2.45;;;20.00;68.00;;;;;;5050258;28;20021;-63
2022/06/27 00:51:55;;;;;;;5.03;2.17;;;20.00;68.10;;;;;;5051195;28;20041;-63
2022/06/27 00:54:23;;;;;;;6.18;2.63;;;20.00;68.10;;;;;;5046256;28;20025;-63
2022/06/27 00:56:50;;;;;;;5.47;2.42;;;20.00;68.00;;;;;;5043298;28;20033;-63
2022/06/27 00:59:16;;;;;;;4.97;2.38;;;19.90;67.90;;;;;;5052449;28;20044;-63
2022/06/27 01:01:41;;;;;;;7.90;2.80;;;20.00;67.90;;;;;;5053927;28;20017;-63
2022/06/27 01:04:07;;;;;;;5.93;2.58;;;20.00;68.00;;;;;;5032313;28;20458;-63
2022/06/27 01:06:33;;;;;;;7.20;2.80;;;20.00;68.10;;;;;;5056001;28;20085;-64
2022/06/27 01:08:59;;;;;;;6.25;2.50;;;19.90;68.20;;;;;;5048198;28;20025;-64
2022/06/27 01:11:24;;;;;;;7.05;2.65;;;19.90;68.20;;;;;;5053723;28;20021;-64
2022/06/27 01:13:51;;;;;;;5.00;2.35;;;19.90;68.30;;;;;;5042598;28;20044;-65
2022/06/27 01:16:18;;;;;;;6.00;2.60;;;19.90;68.40;;;;;;5049760;28;20062;-63
2022/06/27 01:18:44;;;;;;;6.65;2.40;;;19.90;68.40;;;;;;5047983;28;20033;-63
2022/06/27 01:21:25;;;;;;;8.73;3.10;;;19.90;68.40;;;;;;5041751;28;20033;-64
2022/06/27 01:23:54;;;;;;;5.45;2.53;;;19.90;68.40;;;;;;5048089;28;20048;-63
2022/06/27 01:26:23;;;;;;;5.75;2.35;;;19.90;68.50;;;;;;5049831;28;20089;-63
2022/06/27 01:28:50;;;;;;;5.32;2.60;;;19.90;68.60;;;;;;5049859;28;20017;-64
2022/06/27 01:31:17;;;;;;;5.60;2.63;;;19.90;68.60;;;;;;5050083;28;20040;-63
2022/06/27 01:33:43;;;;;;;5.57;2.60;;;19.90;68.70;;;;;;5048433;28;20029;-63
2022/06/27 01:38:54;;;;;;;6.78;2.78;;;19.90;68.40;;;;;;5042218;28;20029;-63
2022/06/27 01:41:21;;;;;;;6.50;2.78;;;19.90;68.40;;;;;;5044827;28;20033;-63
2022/06/27 01:43:48;;;;;;;5.78;2.60;;;19.90;68.40;;;;;;5050132;28;20104;-63
2022/06/27 01:46:16;;;;;;;6.22;2.67;;;19.90;68.40;;;;;;5038982;28;20033;-63
2022/06/27 01:48:43;;;;;;;8.02;2.63;;;19.90;68.60;;;;;;5053574;28;20457;-63
2022/06/27 01:51:09;;;;;;;7.63;2.75;;;19.90;68.60;;;;;;5048640;28;20118;-63
2022/06/27 01:53:36;;;;;;;5.10;2.50;;;19.90;68.60;;;;;;5038155;28;20025;-63
2022/06/27 01:56:03;;;;;;;5.97;2.63;;;19.90;68.60;;;;;;5045802;28;20021;-65
2022/06/27 01:58:31;;;;;;;5.35;2.45;;;19.90;68.60;;;;;;5051098;28;20024;-63
2022/06/27 02:00:57;;;;;;;7.25;2.70;;;19.90;68.60;;;;;;5035463;28;20104;-63
2022/06/27 02:03:25;;;;;;;6.88;2.90;;;19.80;68.60;;;;;;5049475;28;20112;-63
2022/06/27 02:05:55;;;;;;;7.60;2.72;;;19.90;68.80;;;;;;5051064;28;20144;-63
2022/06/27 02:08:24;;;;;;;7.13;3.10;;;19.90;68.80;;;;;;5050106;28;20048;-63
2022/06/27 02:10:50;;;;;;;8.18;2.95;;;19.80;68.80;;;;;;5045993;28;20021;-64
2022/06/27 02:13:15;;;;;;;7.35;2.88;;;19.80;68.90;;;;;;5053514;28;20368;-63
2022/06/27 02:16:06;;;;;;;6.60;2.90;;;19.80;69.00;;;;;;5049980;28;20432;-65
2022/06/27 02:18:34;;;;;;;5.55;2.55;;;19.80;69.10;;;;;;5029050;28;20036;-64
2022/06/27 02:21:00;;;;;;;6.45;2.72;;;19.80;69.30;;;;;;5048251;28;20104;-64
2022/06/27 02:23:26;;;;;;;6.38;2.47;;;19.80;69.30;;;;;;5036894;28;20036;-64
2022/06/27 02:25:56;;;;;;;6.03;2.40;;;19.80;69.20;;;;;;5051140;28;20029;-64
2022/06/27 02:28:25;;;;;;;5.63;2.63;;;19.80;69.30;;;;;;5032599;28;20025;-64
2022/06/27 02:30:52;;;;;;;7.05;2.88;;;19.80;69.30;;;;;;5050884;28;20021;-64
2022/06/27 02:33:18;;;;;;;6.53;2.65;;;19.80;69.20;;;;;;5053808;28;20086;-64
2022/06/27 02:35:45;;;;;;;6.50;3.22;;;19.80;69.20;;;;;;5048867;28;20021;-65
2022/06/27 02:38:11;;;;;;;6.75;3.10;;;19.80;69.10;;;;;;5037131;28;20083;-65
2022/06/27 02:40:39;;;;;;;6.72;2.80;;;19.80;69.00;;;;;;5046655;28;20025;-64
2022/06/27 02:43:08;;;;;;;8.13;3.50;;;19.80;69.10;;;;;;5053756;28;20029;-65
2022/06/27 02:45:36;;;;;;;6.50;2.90;;;19.80;69.20;;;;;;5044894;28;20085;-65
2022/06/27 02:48:03;;;;;;;6.75;3.28;;;19.80;69.30;;;;;;5048494;28;20519;-65
2022/06/27 02:50:32;;;;;;;9.23;3.13;;;19.80;69.30;;;;;;5043650;28;20030;-65
2022/06/27 02:53:02;;;;;;;6.38;3.08;;;19.80;69.20;;;;;;5034481;28;20175;-65
2022/06/27 02:55:34;;;;;;;8.07;3.40;;;19.80;69.10;;;;;;5050605;28;20099;-65
2022/06/27 02:58:07;;;;;;;6.38;2.65;;;19.80;69.20;;;;;;5048121;28;20099;-65
2022/06/27 03:00:35;;;;;;;6.35;3.25;;;19.80;69.40;;;;;;5045715;28;20450;-64
2022/06/27 03:03:04;;;;;;;6.65;3.47;;;19.70;69.40;;;;;;5048970;28;20029;-65
2022/06/27 03:05:35;;;;;;;5.38;2.63;;;19.70;69.50;;;;;;5052839;28;20029;-64
2022/06/27 03:08:01;;;;;;;7.18;3.35;;;19.70;69.60;;;;;;5027640;28;20039;-65
2022/06/27 03:10:28;;;;;;;6.70;3.05;;;19.70;69.50;;;;;;5047781;28;20029;-64
2022/06/27 03:12:54;;;;;;;7.53;3.40;;;19.70;69.60;;;;;;5049282;28;20035;-63
2022/06/27 03:15:19;;;;;;;6.63;3.20;;;19.70;69.70;;;;;;5047420;28;20128;-64
2022/06/27 03:17:47;;;;;;;5.88;3.17;;;19.70;69.90;;;;;;5039967;28;20366;-63
2022/06/27 03:20:28;;;;;;;6.75;3.58;;;19.70;69.90;;;;;;5052692;28;20122;-63
2022/06/27 03:23:23;;;;;;;7.00;3.05;;;19.70;70.00;;;;;;5038032;28;20045;-63
2022/06/27 03:25:55;;;;;;;8.43;4.05;;;19.70;70.10;;;;;;5035183;28;20025;-62
2022/06/27 03:28:25;;;;;;;6.03;3.23;;;19.60;70.20;;;;;;5025990;28;20037;-63
2022/06/27 03:30:55;;;;;;;8.10;3.88;;;19.60;70.30;;;;;;5045880;28;20036;-63
2022/06/27 03:33:21;;;;;;;6.82;3.65;;;19.60;70.40;;;;;;5050096;28;20033;-63
2022/06/27 03:35:57;;;;;;;8.65;4.00;;;19.60;70.40;;;;;;5021881;28;20354;-63
2022/06/27 03:38:23;;;;;;;7.60;3.80;;;19.70;70.60;;;;;;5038125;28;20018;-63
2022/06/27 03:40:48;;;;;;;6.93;3.42;;;19.60;70.60;;;;;;5045912;28;20032;-63
2022/06/27 03:43:14;;;;;;;8.57;3.83;;;19.70;70.80;;;;;;5040159;28;20386;-63
2022/06/27 03:45:40;;;;;;;7.50;4.30;;;19.60;70.80;;;;;;5041063;28;20021;-63
2022/06/27 03:48:07;;;;;;;8.52;3.90;;;19.70;70.90;;;;;;5024794;28;20083;-63
2022/06/27 03:50:33;;;;;;;8.65;4.10;;;19.70;70.90;;;;;;5046568;28;20177;-63
2022/06/27 03:52:59;;;;;;;7.47;4.22;;;19.70;71.00;;;;;;5032295;28;20455;-63
2022/06/27 03:55:25;;;;;;;7.35;4.38;;;19.60;71.00;;;;;;5034094;28;20029;-63
2022/06/27 03:57:52;;;;;;;7.75;4.50;;;19.60;71.10;;;;;;5020746;28;20032;-63
2022/06/27 04:00:20;;;;;;;8.05;4.20;;;19.60;71.20;;;;;;5034816;28;20032;-63
2022/06/27 04:02:50;;;;;;;7.65;4.15;;;19.60;71.30;;;;;;5026825;28;20040;-63
2022/06/27 04:05:42;;;;;;;13.65;4.78;;;19.60;71.50;;;;;;5040319;28;20131;-63
2022/06/27 04:08:08;;;;;;;8.10;4.72;;;19.60;71.90;;;;;;5033173;28;20095;-63
2022/06/27 04:10:37;;;;;;;7.53;4.45;;;19.60;71.80;;;;;;5034030;28;20411;-63
2022/06/27 04:13:03;;;;;;;8.45;5.13;;;19.50;71.90;;;;;;5033576;28;20057;-63
2022/06/27 04:15:47;;;;;;;8.10;4.70;;;19.60;72.10;;;;;;5039245;28;20481;-64
2022/06/27 04:18:22;;;;;;;9.05;4.72;;;19.50;72.10;;;;;;5037967;28;20038;-64
2022/06/27 04:21:07;;;;;;;8.00;4.57;;;19.60;72.30;;;;;;5044719;28;20112;-63
2022/06/27 04:23:53;;;;;;;8.02;4.88;;;19.60;72.40;;;;;;5046072;28;20045;-63
2022/06/27 04:26:43;;;;;;;8.85;5.03;;;19.60;72.50;;;;;;5040943;28;20025;-64
2022/06/27 04:29:09;;;;;;;8.48;5.10;;;19.60;72.50;;;;;;5037569;28;20039;-63
2022/06/27 04:31:35;;;;;;;9.45;5.25;;;19.60;72.70;;;;;;5035160;28;20044;-62
2022/06/27 04:34:00;;;;;;;9.80;5.50;;;19.60;72.80;;;;;;5044040;28;20038;-63
2022/06/27 04:36:32;;;;;;;8.90;5.07;;;19.60;72.90;;;;;;5050955;28;20123;-63
2022/06/27 04:38:58;;;;;;;12.15;5.68;;;19.70;73.00;;;;;;5046227;28;20107;-63
2022/06/27 04:41:50;;;;;;;9.60;5.70;;;19.70;73.00;;;;;;5044810;28;20100;-63
2022/06/27 04:44:18;;;;;;;9.10;4.75;;;19.70;73.10;;;;;;5048696;28;20112;-63
2022/06/27 04:46:47;;;;;;;9.45;5.38;;;19.70;73.20;;;;;;5050117;28;20044;-63
2022/06/27 04:49:19;;;;;;;8.82;5.78;;;19.70;73.20;;;;;;5047894;28;20512;-63
2022/06/27 04:51:49;;;;;;;9.93;5.05;;;19.70;73.30;;;;;;5045105;28;20375;-63
2022/06/27 04:54:22;;;;;;;8.48;5.53;;;19.80;73.40;;;;;;5037513;28;20025;-63
2022/06/27 04:56:48;;;;;;;10.18;6.13;;;19.80;73.40;;;;;;5054240;28;20021;-63
2022/06/27 04:59:15;;;;;;;12.02;5.90;;;19.90;73.50;;;;;;5038672;28;20120;-63
2022/06/27 05:01:43;;;;;;;9.80;6.28;;;19.90;73.40;;;;;;5037844;28;20057;-64
2022/06/27 05:04:12;;;;;;;11.27;6.93;;;19.90;73.20;;;;;;5036493;28;20029;-64
2022/06/27 05:06:41;;;;;;;10.45;6.55;;;19.90;73.20;;;;;;5042569;28;20025;-63
2022/06/27 05:09:08;;;;;;;11.18;6.90;;;19.90;73.20;;;;;;5055401;28;20025;-63
2022/06/27 05:11:34;;;;;;;10.38;6.55;;;19.90;73.20;;;;;;5049722;28;20021;-63
2022/06/27 05:14:00;;;;;;;8.82;6.68;;;20.00;73.40;;;;;;5048521;28;20451;-63
2022/06/27 05:16:51;;;;;;;12.85;7.03;;;20.00;73.40;;;;;;5043233;28;20076;-63
2022/06/27 05:19:19;;;;;;;11.43;7.15;;;20.10;73.40;;;;;;5043447;28;20029;-64
2022/06/27 05:21:45;;;;;;;11.88;7.45;;;20.10;73.50;;;;;;5049018;28;20025;-64
2022/06/27 05:24:12;;;;;;;10.65;6.95;;;20.10;73.50;;;;;;5045934;28;20403;-64
2022/06/27 05:26:38;;;;;;;9.50;6.70;;;20.10;73.40;;;;;;5048953;28;20078;-64
2022/06/27 05:29:03;;;;;;;10.50;7.13;;;20.20;73.50;;;;;;5049829;28;20297;-64
2022/06/27 05:31:30;;;;;;;10.50;6.68;;;20.20;73.40;;;;;;5055513;28;20056;-64
2022/06/27 05:33:56;;;;;;;12.82;7.20;;;20.20;73.30;;;;;;5040633;28;20470;-64
2022/06/27 05:36:21;;;;;;;11.43;7.10;;;20.30;73.40;;;;;;5041996;28;20032;-64
2022/06/27 05:38:48;;;;;;;10.50;7.18;;;20.30;73.40;;;;;;5056695;28;20025;-65
2022/06/27 05:41:14;;;;;;;11.05;6.57;;;20.30;73.40;;;;;;5043120;28;20024;-65
2022/06/27 05:43:40;;;;;;;11.73;6.75;;;20.30;73.50;;;;;;5046178;28;20033;-65
2022/06/27 05:46:06;;;;;;;11.77;7.03;;;20.30;73.40;;;;;;5022532;28;20029;-64
2022/06/27 05:48:53;;;;;;;9.25;6.63;;;20.30;73.30;;;;;;5042181;28;20263;-64
2022/06/27 05:51:28;;;;;;;11.52;7.25;;;20.30;73.30;;;;;;5047773;28;20067;-65
2022/06/27 05:53:56;;;;;;;12.50;7.22;;;20.30;73.20;;;;;;5035265;28;20343;-64
2022/06/27 05:56:24;;;;;;;10.32;6.38;;;20.30;73.10;;;;;;5050721;28;20021;-64
2022/06/27 05:58:50;;;;;;;10.80;7.30;;;20.40;73.20;;;;;;5046589;28;20020;-64
2022/06/27 06:01:17;;;;;;;11.20;6.53;;;20.30;73.20;;;;;;5051595;28;20068;-65
2022/06/27 06:03:44;;;;;;;9.68;6.30;;;20.30;73.10;;;;;;5053212;28;20401;-64
2022/06/27 06:06:11;;;;;;;10.07;6.30;;;20.40;73.20;;;;;;5036136;28;20052;-64
2022/06/27 06:08:37;;;;;;;9.20;6.15;;;20.40;73.40;;;;;;5040853;28;20024;-64
2022/06/27 06:11:03;;;;;;;11.35;6.90;;;20.40;73.40;;;;;;5045267;28;20417;-68
2022/06/27 06:13:30;;;;;;;10.18;6.72;;;20.40;73.30;;;;;;5046977;28;20087;-66
2022/06/27 06:15:58;;;;;;;10.23;6.85;;;20.50;73.20;;;;;;5057459;28;20466;-66
2022/06/27 06:18:27;;;;;;;10.57;6.32;;;20.50;72.90;;;;;;5040557;28;20095;-66
2022/06/27 06:20:53;;;;;;;10.73;6.85;;;20.60;72.60;;;;;;5039635;28;20021;-67
2022/06/27 06:23:18;;;;;;;9.93;6.15;;;20.60;72.50;;;;;;5044408;28;20039;-66
2022/06/27 06:25:44;;;;;;;11.85;6.30;;;20.70;72.40;;;;;;5019458;28;20021;-67
2022/06/27 06:28:10;;;;;;;12.93;6.40;;;20.70;72.40;;;;;;5039708;28;20361;-66
2022/06/27 06:30:36;;;;;;;9.50;7.03;;;20.70;72.30;;;;;;5032925;28;20172;-67
2022/06/27 06:33:05;;;;;;;9.93;6.22;;;20.70;72.30;;;;;;5037076;28;20033;-66
2022/06/27 06:35:33;;;;;;;10.27;6.43;;;20.60;72.30;;;;;;5034930;28;20026;-66
2022/06/27 06:38:01;;;;;;;10.38;6.03;;;20.60;72.40;;;;;;5020328;28;20350;-66
2022/06/27 06:40:28;;;;;;;8.95;6.15;;;20.60;72.60;;;;;;5033704;28;20024;-66
2022/06/27 06:42:54;;;;;;;8.65;5.47;;;20.60;72.70;;;;;;5032989;28;20021;-67
2022/06/27 06:45:25;;;;;;;9.70;5.88;;;20.50;72.80;;;;;;5023366;28;20055;-66
2022/06/27 06:48:02;;;;;;;10.57;5.93;;;20.50;72.80;;;;;;5032462;28;20340;-67
2022/06/27 06:50:30;;;;;;;10.77;6.05;;;20.50;72.80;;;;;;5038975;28;20028;-66
2022/06/27 06:52:56;;;;;;;9.38;6.00;;;20.50;72.90;;;;;;5033044;28;20029;-66
2022/06/27 06:55:22;;;;;;;8.88;6.22;;;20.50;72.90;;;;;;5036426;28;20437;-66
2022/06/27 06:57:51;;;;;;;9.68;6.25;;;20.50;73.00;;;;;;5031919;28;20025;-66
2022/06/27 07:00:19;;;;;;;11.07;6.57;;;20.50;73.10;;;;;;5034670;28;20026;-66
2022/06/27 07:02:45;;;;;;;10.10;6.00;;;20.50;73.20;;;;;;5036245;28;20409;-66
2022/06/27 07:05:11;;;;;;;11.18;6.53;;;20.50;73.20;;;;;;5048185;28;20163;-66
2022/06/27 07:07:43;;;;;;;10.07;6.70;;;20.50;73.30;;;;;;5032793;28;20115;-67
2022/06/27 07:10:11;;;;;;;12.07;7.15;;;20.60;73.40;;;;;;5032565;28;20029;-66
2022/06/27 07:12:38;;;;;;;10.77;6.75;;;20.60;73.20;;;;;;5033945;28;20025;-67
2022/06/27 07:15:09;;;;;;;11.38;6.80;;;20.60;73.00;;;;;;5036156;28;20032;-66
2022/06/27 07:17:53;;;;;;;10.05;6.70;;;20.70;72.90;;;;;;5038895;28;20088;-66
2022/06/27 07:20:20;;;;;;;9.05;6.00;;;20.70;72.80;;;;;;5039365;28;20036;-66
2022/06/27 07:22:50;;;;;;;10.63;5.90;;;20.70;72.80;;;;;;5033205;28;20168;-66
2022/06/27 07:25:17;;;;;;;9.90;6.13;;;20.80;73.60;;;;;;5034635;28;20025;-66
2022/06/27 07:27:44;;;;;;;9.63;6.80;;;20.80;72.90;;;;;;5035431;28;20111;-66
2022/06/27 07:30:11;;;;;;;9.82;6.05;;;20.80;72.80;;;;;;5034146;28;20393;-66
2022/06/27 07:32:42;;;;;;;11.35;6.57;;;20.80;73.50;;;;;;5034282;28;20430;-66
2022/06/27 07:35:11;;;;;;;9.45;6.25;;;20.80;72.70;;;;;;5037612;28;20033;-67
2022/06/27 07:37:48;;;;;;;10.45;7.13;;;20.90;72.60;;;;;;5015213;28;20026;-65
2022/06/27 07:40:21;;;;;;;9.68;5.90;;;20.90;72.40;;;;;;5039373;28;20017;-64
2022/06/27 07:42:49;;;;;;;11.00;6.35;;;20.90;72.20;;;;;;5044386;28;20037;-64
2022/06/27 07:45:16;;;;;;;9.73;6.28;;;20.90;72.00;;;;;;5034703;28;20044;-64
2022/06/27 07:47:46;;;;;;;12.77;6.88;;;20.90;71.90;;;;;;5032827;28;20033;-64
2022/06/27 07:50:36;;;;;;;9.90;6.27;;;20.90;71.90;;;;;;5035793;28;20032;-64
2022/06/27 07:53:11;;;;;;;9.43;6.03;;;20.90;72.00;;;;;;5036332;28;20377;-65
2022/06/27 07:55:39;;;;;;;12.15;6.72;;;20.90;72.10;;;;;;5036056;28;20024;-64
2022/06/27 07:58:07;;;;;;;9.57;6.45;;;20.90;72.00;;;;;;5050828;28;20060;-64
2022/06/27 08:00:33;;;;;;;10.30;6.05;;;20.90;71.90;;;;;;5050261;28;20025;-64
2022/06/27 08:03:36;;;;;;;11.30;6.32;;;20.90;71.90;;;;;;5040663;28;20033;-64
2022/06/27 08:05:46;;;;;;;10.18;5.90;;;21.00;71.90;;;;;;5047405;28;20099;-63
2022/06/27 08:08:11;;;;;;;8.45;6.25;;;21.00;71.70;;;;;;5037528;28;20033;-63
2022/06/27 08:10:37;;;;;;;14.35;6.63;;;21.00;71.40;;;;;;5052602;28;20494;-64
2022/06/27 08:13:03;;;;;;;10.45;6.22;;;21.10;71.20;;;;;;5050384;28;20052;-64
2022/06/27 08:15:29;;;;;;;8.95;5.68;;;21.10;70.90;;;;;;5049373;28;20503;-64
2022/06/27 08:17:57;;;;;;;9.27;5.65;;;21.20;70.70;;;;;;5045271;28;20085;-64
2022/06/27 08:20:23;;;;;;;9.98;5.95;;;21.20;70.30;;;;;;5052715;28;20029;-64
2022/06/27 08:22:51;;;;;;;9.32;6.28;;;21.20;70.10;;;;;;5048866;28;20107;-63
2022/06/27 08:25:17;;;;;;;10.40;6.35;;;21.20;69.90;;;;;;5050633;28;20037;-64
2022/06/27 08:27:48;;;;;;;8.93;5.75;;;21.20;69.80;;;;;;5045416;28;20029;-63
2022/06/27 08:30:14;;;;;;;9.67;6.10;;;21.30;69.90;;;;;;5045425;28;20350;-65
2022/06/27 08:32:41;;;;;;;9.02;5.93;;;21.20;70.10;;;;;;5047118;28;20619;-64
2022/06/27 08:35:08;;;;;;;11.10;5.68;;;21.20;70.30;;;;;;5053967;28;20470;-64
2022/06/27 08:37:34;;;;;;;10.23;6.20;;;21.30;70.50;;;;;;5057816;28;20116;-64
2022/06/27 08:40:01;;;;;;;11.00;5.60;;;21.30;70.50;;;;;;5057700;28;20025;-63
2022/06/27 08:42:28;;;;;;;9.32;5.40;;;21.40;70.50;;;;;;5058109;28;20036;-63
2022/06/27 08:44:55;;;;;;;10.07;5.20;;;21.40;70.00;;;;;;5056338;28;20033;-63
2022/06/27 08:47:22;;;;;;;9.68;4.97;;;21.50;69.80;;;;;;5057561;28;20029;-64
2022/06/27 08:49:51;;;;;;;8.50;4.65;;;21.60;69.50;;;;;;5057124;28;20056;-64
2022/06/27 08:52:19;;;;;;;7.75;3.97;;;21.60;69.00;;;;;;5057513;28;20064;-64
2022/06/27 08:54:45;;;;;;;7.47;3.45;;;21.70;68.30;;;;;;5050180;28;20030;-63
2022/06/27 08:57:11;;;;;;;6.22;3.40;;;21.80;67.50;;;;;;5053633;28;20357;-64
2022/06/27 08:59:37;;;;;;;6.60;3.40;;;21.80;67.00;;;;;;5057352;28;20037;-63
2022/06/27 09:02:03;;;;;;;8.82;3.47;;;21.90;66.70;;;;;;5057204;28;20029;-63
2022/06/27 09:04:31;;;;;;;7.82;3.15;;;21.90;66.10;;;;;;5046405;28;20034;-64
2022/06/27 09:06:57;;;;;;;6.45;3.15;;;22.00;65.70;;;;;;5056349;28;20029;-63
2022/06/27 09:09:27;;;;;;;7.75;3.03;;;22.00;65.50;;;;;;5050393;28;20021;-63
2022/06/27 09:11:54;;;;;;;8.48;4.03;;;22.00;65.20;;;;;;5054912;28;20049;-64
2022/06/27 09:14:37;;;;;;;7.30;3.60;;;22.00;65.10;;;;;;5054147;28;20082;-64
2022/06/27 09:17:09;;;;;;;8.40;4.30;;;22.00;65.00;;;;;;5049987;28;21664;-63
2022/06/27 09:19:51;;;;;;;7.13;3.70;;;22.00;65.10;;;;;;5051485;28;20058;-63
2022/06/27 09:22:19;;;;;;;8.27;4.03;;;22.00;65.00;;;;;;5056357;28;20029;-63
2022/06/27 09:24:58;;;;;;;7.22;3.53;;;22.00;64.90;;;;;;5048333;28;20040;-64
2022/06/27 09:27:40;;;;;;;8.18;3.28;;;22.00;64.90;;;;;;5040410;28;20025;-63
2022/06/27 09:30:18;;;;;;;6.38;3.30;;;22.10;64.10;;;;;;5038779;28;20347;-63
2022/06/27 09:32:44;;;;;;;6.05;3.28;;;22.10;63.80;;;;;;5054107;28;20039;-63
2022/06/27 09:35:33;;;;;;;7.63;3.88;;;22.20;63.80;;;;;;5055322;28;20120;-63
2022/06/27 09:38:02;;;;;;;6.10;3.30;;;22.20;63.20;;;;;;5051790;28;20052;-64
2022/06/27 09:40:32;;;;;;;8.73;3.20;;;22.20;63.20;;;;;;5048007;28;20372;-63
2022/06/27 09:42:58;;;;;;;5.95;3.30;;;22.20;63.00;;;;;;5051989;28;20025;-63
2022/06/27 09:45:27;;;;;;;7.60;3.13;;;22.20;63.10;;;;;;5055559;28;20454;-64
2022/06/27 09:47:58;;;;;;;6.18;2.97;;;22.30;63.20;;;;;;5041051;28;20034;-63
2022/06/27 09:50:24;;;;;;;;;;;22.30;63.20;;;;;;5057155;28;20032;-64
2022/06/27 09:52:50;;;;;;;6.22;2.30;;;22.30;63.40;;;;;;5054505;28;20349;-64
2022/06/27 09:55:18;;;;;;;6.53;2.78;;;22.20;63.00;;;;;;5043659;28;20028;-63
2022/06/27 09:57:46;;;;;;;6.25;2.80;;;22.20;62.70;;;;;;5052674;28;20035;-64
2022/06/27 10:00:13;;;;;;;7.60;3.35;;;22.20;62.60;;;;;;5043431;28;20366;-63
2022/06/27 10:02:39;;;;;;;8.88;3.20;;;22.20;62.20;;;;;;5054849;28;20029;-63
2022/06/27 10:05:05;;;;;;;6.40;3.08;;;22.20;62.40;;;;;;5041730;28;20207;-63
2022/06/27 10:07:31;;;;;;;7.60;3.28;;;22.20;62.20;;;;;;5055124;28;20394;-63
2022/06/27 10:09:57;;;;;;;7.35;3.65;;;22.20;62.40;;;;;;5036839;28;20060;-65
2022/06/27 10:12:23;;;;;;;6.07;3.28;;;22.30;62.50;;;;;;5048936;28;20080;-63
2022/06/27 10:15:10;;;;;;;6.93;3.42;;;22.30;62.50;;;;;;5035347;28;20045;-64
2022/06/27 10:17:46;;;;;;;8.07;4.20;;;22.40;62.20;;;;;;5044385;28;20057;-64
2022/06/27 10:20:16;;;;;;;6.32;3.45;;;22.50;62.20;;;;;;5050281;28;20024;-63
2022/06/27 10:22:42;;;;;;;9.27;4.38;;;22.50;62.10;;;;;;5048337;28;20355;-64
2022/06/27 10:25:26;;;;;;;9.30;4.13;;;22.50;61.70;;;;;;5036962;28;20033;-63
2022/06/27 10:28:14;;;;;;;9.15;4.20;;;22.50;61.70;;;;;;5052917;28;20100;-63
2022/06/27 10:30:42;;;;;;;10.50;4.20;;;22.50;61.40;;;;;;5053023;28;20033;-64
2022/06/27 10:33:25;;;;;;;7.15;3.70;;;22.50;61.50;;;;;;5048483;28;20377;-64
2022/06/27 10:36:03;;;;;;;7.47;3.15;;;22.50;61.10;;;;;;5050448;28;20032;-64
2022/06/27 10:38:32;;;;;;;7.45;3.03;;;22.50;60.90;;;;;;5048170;28;20431;-63
2022/06/27 10:41:04;;;;;;;8.60;3.85;;;22.70;60.50;;;;;;5054616;28;20438;-64
2022/06/27 10:43:35;;;;;;;5.93;2.90;;;22.80;59.60;;;;;;5045940;28;20033;-64
2022/06/27 10:46:05;;;;;;;8.60;3.30;;;22.90;59.40;;;;;;5051960;28;20090;-63
2022/06/27 10:48:38;;;;;;;7.20;3.50;;;23.00;59.00;;;;;;5045668;28;20029;-64
2022/06/27 10:51:30;;;;;;;7.13;3.17;;;23.10;58.70;;;;;;5041843;28;20029;-63
2022/06/27 10:53:58;;;;;;;6.60;3.00;;;23.20;59.00;;;;;;5041800;28;20025;-64
2022/06/27 10:56:36;;;;;;;8.05;3.00;;;23.20;58.70;;;;;;5050316;28;20037;-63
2022/06/27 10:59:12;;;;;;;6.57;3.17;;;23.30;58.50;;;;;;5040839;28;20397;-64
2022/06/27 11:01:39;;;;;;;6.95;3.10;;;23.30;58.50;;;;;;5037226;28;20450;-64
2022/06/27 11:04:06;;;;;;;6.65;3.05;;;23.30;58.40;;;;;;5035601;28;20034;-64
2022/06/27 11:06:32;;;;;;;5.95;2.88;;;23.20;58.40;;;;;;5038092;28;20033;-64
2022/06/27 11:08:57;;;;;;;7.97;2.80;;;23.20;58.50;;;;;;5033811;28;20029;-64
2022/06/27 11:11:27;;;;;;;6.00;2.90;;;23.20;58.60;;;;;;5040923;28;20458;-64
2022/06/27 11:13:58;;;;;;;6.03;2.53;;;23.20;58.30;;;;;;5033077;28;20048;-65
2022/06/27 11:16:24;;;;;;;5.65;2.60;;;23.40;57.90;;;;;;5031215;28;20271;-64
2022/06/27 11:18:56;;;;;;;6.53;3.13;;;23.50;57.70;;;;;;5033863;28;20017;-64
2022/06/27 11:21:26;;;;;;;7.10;2.92;;;23.60;57.50;;;;;;5034472;28;20454;-67
2022/06/27 11:23:54;;;;;;;9.27;4.22;;;23.70;57.40;;;;;;5018579;28;20489;-64
2022/06/27 11:26:21;;;;;;;7.72;3.33;;;23.70;57.40;;;;;;5042461;28;20021;-65
2022/06/27 11:34:16;;;;;;;6.68;3.13;;;23.60;56.90;;;;;;5046230;28;20091;-65
2022/06/27 11:36:42;;;;;;;7.72;3.35;;;23.60;56.60;;;;;;5041372;28;20066;-66
2022/06/27 11:39:07;;;;;;;8.75;3.15;;;23.60;56.40;;;;;;5046824;28;20029;-64
2022/06/27 11:41:39;;;;;;;7.68;3.40;;;23.50;56.30;;;;;;5024065;28;20025;-65
2022/06/27 11:44:07;;;;;;;;;;;23.40;56.50;;;;;;5054268;28;20083;-66
2022/06/27 11:46:45;;;;;;;6.68;2.85;;;23.30;57.00;;;;;;5041075;28;20278;-64
2022/06/27 11:49:27;;;;;;;7.20;3.50;;;23.20;57.50;;;;;;5052557;28;20052;-65
2022/06/27 11:51:58;;;;;;;8.73;2.75;;;23.20;57.80;;;;;;5052767;28;20047;-64
2022/06/27 11:54:24;;;;;;;8.00;3.85;;;23.00;58.20;;;;;;5052343;28;20033;-65
2022/06/27 11:56:51;;;;;;;7.45;3.55;;;23.00;58.00;;;;;;5053197;28;20458;-65
2022/06/27 11:59:19;;;;;;;7.78;2.92;;;23.00;58.10;;;;;;5048043;28;20022;-65
2022/06/27 12:02:01;;;;;;;11.60;4.18;;;22.90;58.40;;;;;;5050641;28;20032;-65
2022/06/27 12:04:28;;;;;;;6.88;3.25;;;23.00;58.10;;;;;;5052467;28;20028;-65
2022/06/27 12:07:04;;;;;;;17.95;4.70;;;23.00;58.30;;;;;;5039350;28;20090;-65
2022/06/27 12:09:29;;;;;;;12.00;3.53;;;23.00;58.50;;;;;;5055505;28;20125;-68
2022/06/27 12:12:01;;;;;;;7.18;3.22;;;23.00;58.30;;;;;;5043584;28;20506;-65
2022/06/27 12:14:29;;;;;;;8.00;2.80;;;23.00;57.90;;;;;;5053188;28;20473;-66
2022/06/27 12:16:57;;;;;;;6.55;2.90;;;23.00;57.60;;;;;;5042089;28;20466;-65
2022/06/27 12:19:25;;;;;;;11.35;3.50;;;23.00;57.90;;;;;;5057994;28;20021;-65
2022/06/27 12:21:51;;;;;;;6.45;2.75;;;23.10;57.70;;;;;;5044350;28;20075;-65
2022/06/27 12:24:17;;;;;;;10.73;3.17;;;23.20;57.20;;;;;;5055500;28;20409;-65
2022/06/27 12:26:43;;;;;;;6.25;2.78;;;23.30;56.90;;;;;;5038020;28;20033;-65
2022/06/27 12:29:09;;;;;;;6.35;2.97;;;23.40;56.70;;;;;;5041041;28;20037;-66
2022/06/27 12:31:35;;;;;;;7.20;3.10;;;23.50;56.80;;;;;;5055120;28;20048;-64
2022/06/27 12:34:02;;;;;;;8.18;3.60;;;23.50;56.90;;;;;;5056633;28;20089;-64
2022/06/27 12:36:30;;;;;;;7.82;3.22;;;23.50;57.00;;;;;;5045939;28;20025;-64
2022/06/27 12:38:56;;;;;;;8.85;3.50;;;23.50;56.90;;;;;;5056479;28;20110;-64
2022/06/27 12:41:22;;;;;;;9.43;3.58;;;23.50;57.00;;;;;;5050931;28;20497;-65
2022/06/27 12:43:48;;;;;;;7.53;3.75;;;23.50;57.00;;;;;;5057727;28;20057;-66
2022/06/27 12:46:15;;;;;;;8.38;3.58;;;23.50;57.10;;;;;;5054662;28;20037;-65
2022/06/27 12:48:42;;;;;;;8.50;3.55;;;23.60;57.00;;;;;;5056829;28;20044;-65
2022/06/27 12:51:08;;;;;;;8.25;3.55;;;23.60;56.80;;;;;;5044201;28;20021;-65
2022/06/27 12:53:35;;;;;;;7.22;3.55;;;23.60;56.80;;;;;;5054563;28;20029;-65
2022/06/27 12:56:02;;;;;;;8.18;3.63;;;23.60;56.90;;;;;;5042728;28;20038;-64
2022/06/27 12:58:28;;;;;;;6.18;3.10;;;23.50;56.70;;;;;;5053627;28;20029;-65
2022/06/27 13:00:54;;;;;;;6.43;2.67;;;23.40;56.60;;;;;;5052173;28;20037;-64
2022/06/27 13:03:20;;;;;;;5.88;2.70;;;23.40;56.80;;;;;;5052772;28;20033;-65